Time;durP1;ratioP1;P1;durP2;ratioP2;P2;SDS_P1;SDS_P2;PMS_P1;PMS_P2;Temp;Humidity;BMP_temperature;BMP_pressure;BME280_temperature;BME280_humidity;BME280_pressure;Samples;Min_cycle;Max_cycle;Signal;HPM_P1;HPM_P2
2021/10/26 00:02:04;;;;;;;33.25;17.50;;;;;;;0.42;61.79;101012.66;1725746;83;21374;-64
2021/10/26 00:04:31;;;;;;;33.33;16.85;;;;;;;0.42;61.91;101014.01;1670741;84;21619;-64
2021/10/26 00:06:57;;;;;;;34.18;18.00;;;;;;;0.41;61.98;101017.69;1678962;84;21050;-64
2021/10/26 00:09:23;;;;;;;31.33;15.78;;;;;;;0.41;62.04;101015.51;1702469;83;21642;-63
2021/10/26 00:11:50;;;;;;;37.78;18.67;;;;;;;0.40;62.10;101009.81;1694508;84;21094;-64
2021/10/26 00:14:16;;;;;;;33.53;17.10;;;;;;;0.40;62.23;101009.31;1697693;84;21116;-64
2021/10/26 00:16:43;;;;;;;30.27;15.13;;;;;;;0.42;62.28;101011.33;1690731;84;21398;-63
2021/10/26 00:19:09;;;;;;;30.45;17.00;;;;;;;0.42;62.31;101009.98;1668820;84;21080;-64
2021/10/26 00:21:36;;;;;;;37.75;18.23;;;;;;;0.41;62.42;101004.30;1693621;84;21055;-64
2021/10/26 00:24:03;;;;;;;33.70;17.37;;;;;;;0.43;62.44;101000.08;1691390;84;21048;-64
2021/10/26 00:26:29;;;;;;;34.25;16.48;;;;;;;0.43;62.54;100996.90;1684751;84;20978;-63
2021/10/26 00:28:56;;;;;;;31.00;16.25;;;;;;;0.44;62.52;100995.06;1700564;83;21537;-64
2021/10/26 00:31:24;;;;;;;31.82;17.07;;;;;;;0.46;62.55;100986.36;1699533;84;21019;-64
2021/10/26 00:33:52;;;;;;;29.87;16.10;;;;;;;0.46;62.57;100984.48;1699411;83;21026;-64
2021/10/26 00:36:18;;;;;;;31.97;16.42;;;;;;;0.46;62.53;100995.73;1698288;84;21070;-65
2021/10/26 00:38:45;;;;;;;29.77;16.07;;;;;;;0.46;62.62;100992.52;1704379;83;21518;-64
2021/10/26 00:41:12;;;;;;;33.55;16.27;;;;;;;0.49;62.54;100988.68;1723949;83;20983;-64
2021/10/26 00:43:38;;;;;;;;;;;;;;;0.49;62.55;100979.30;1730117;83;21553;-65
2021/10/26 00:46:06;;;;;;;30.03;15.17;;;;;;;0.46;62.62;100971.09;1726990;82;20140;-64
2021/10/26 00:48:34;;;;;;;27.52;14.33;;;;;;;0.42;62.72;100971.64;1727793;82;21489;-64
2021/10/26 00:51:00;;;;;;;27.20;13.68;;;;;;;0.42;62.70;100973.82;1714217;82;21092;-64
2021/10/26 00:53:26;;;;;;;29.23;15.00;;;;;;;0.42;62.66;100966.28;1726970;82;21042;-64
2021/10/26 00:55:53;;;;;;;25.62;12.90;;;;;;;0.43;62.67;100969.27;1691167;85;21090;-64
2021/10/26 00:58:19;;;;;;;29.95;15.13;;;;;;;0.44;62.63;100969.61;1728553;82;21545;-65
2021/10/26 01:00:46;;;;;;;27.32;14.25;;;;;;;0.45;62.72;100968.61;1743499;81;21081;-64
2021/10/26 01:03:12;;;;;;;;;;;;;;;0.44;62.70;100962.41;1742411;82;20963;-64
2021/10/26 01:05:41;;;;;;;30.32;15.68;;;;;;;0.44;62.72;100959.73;1728414;82;20097;-64
2021/10/26 01:08:09;;;;;;;31.82;16.00;;;;;;;0.39;62.88;100967.98;1695476;82;21431;-64
2021/10/26 01:13:31;;;;;;;27.30;14.80;;;;;;;0.41;62.78;100957.41;1803355;79;22491;-63
2021/10/26 01:15:58;;;;;;;32.00;14.83;;;;;;;0.39;62.84;100959.95;1714377;82;21039;-64
2021/10/26 01:18:26;;;;;;;25.43;14.65;;;;;;;0.38;62.86;100965.80;1743356;82;21039;-64
2021/10/26 01:20:53;;;;;;;25.65;13.72;;;;;;;0.38;62.79;100963.13;1737497;82;21019;-64
2021/10/26 01:23:21;;;;;;;26.55;14.10;;;;;;;0.37;62.82;100968.14;1738182;82;21561;-64
2021/10/26 01:25:48;;;;;;;27.90;14.80;;;;;;;0.35;62.78;100959.47;1733086;82;21074;-64
2021/10/26 01:28:14;;;;;;;27.02;13.45;;;;;;;0.34;62.80;100960.47;1739700;82;21015;-64
2021/10/26 01:30:41;;;;;;;;;;;;;;;0.34;62.82;100955.61;1728882;82;21517;-64
2021/10/26 01:33:24;;;;;;;22.75;12.78;;;;;;;0.32;62.87;100952.28;1736066;82;20130;-64
2021/10/26 01:35:53;;;;;;;27.93;13.50;;;;;;;0.25;63.01;100954.80;1743828;80;21110;-64
2021/10/26 01:38:24;;;;;;;27.93;14.10;;;;;;;0.24;63.07;100961.20;1729889;82;20983;-64
2021/10/26 01:40:50;;;;;;;28.25;13.50;;;;;;;0.22;63.05;100946.28;1737083;80;21094;-64
2021/10/26 01:43:17;;;;;;;25.97;13.95;;;;;;;0.21;63.11;100953.52;1737551;82;21027;-64
2021/10/26 01:45:43;;;;;;;26.33;14.78;;;;;;;0.19;63.23;100960.03;1742077;80;21065;-63
2021/10/26 01:48:11;;;;;;;26.75;13.62;;;;;;;0.17;63.22;100944.66;1732030;82;21054;-64
2021/10/26 01:50:38;;;;;;;28.32;14.25;;;;;;;0.17;63.24;100955.37;1752678;82;21147;-63
2021/10/26 01:53:04;;;;;;;25.72;13.93;;;;;;;0.14;63.37;100955.72;1733098;81;21066;-64
2021/10/26 01:55:30;;;;;;;24.37;13.32;;;;;;;0.14;63.37;100958.41;1740462;80;21711;-64
2021/10/26 01:57:57;;;;;;;24.23;13.25;;;;;;;0.12;63.38;100949.69;1738322;82;21058;-64
2021/10/26 02:00:32;;;;;;;24.65;13.22;;;;;;;0.12;63.52;100961.23;1737344;82;21086;-63
2021/10/26 02:02:58;;;;;;;25.62;13.72;;;;;;;0.09;63.51;100950.88;1733301;82;21074;-64
2021/10/26 02:05:25;;;;;;;28.23;14.70;;;;;;;0.08;63.63;100951.88;1751032;82;21091;-64
2021/10/26 02:07:51;;;;;;;28.52;14.03;;;;;;;0.08;63.65;100954.56;1744103;82;21624;-64
2021/10/26 02:10:20;;;;;;;26.15;13.43;;;;;;;0.08;63.57;100946.53;1739270;82;21019;-64
2021/10/26 02:12:46;;;;;;;25.95;13.75;;;;;;;0.08;63.60;100948.37;1742880;81;21004;-63
2021/10/26 02:15:13;;;;;;;26.37;12.75;;;;;;;0.07;63.66;100944.88;1723936;82;21587;-65
2021/10/26 02:17:40;;;;;;;25.32;13.70;;;;;;;0.08;63.65;100947.03;1731446;82;21055;-65
2021/10/26 02:20:11;;;;;;;27.60;14.05;;;;;;;0.06;63.65;100941.86;1728847;82;21079;-65
2021/10/26 02:22:38;;;;;;;22.77;12.80;;;;;;;0.05;63.69;100943.36;1734993;82;21022;-65
2021/10/26 02:25:05;;;;;;;24.52;12.75;;;;;;;0.03;63.71;100940.04;1722449;81;21065;-65
2021/10/26 02:27:33;;;;;;;26.25;13.72;;;;;;;0.00;63.77;100934.55;1726354;82;21090;-65
2021/10/26 02:30:00;;;;;;;28.20;13.90;;;;;;;-0.02;63.85;100933.86;1727902;82;20988;-65
2021/10/26 02:32:27;;;;;;;22.80;12.33;;;;;;;-0.05;63.91;100924.34;1718121;82;21090;-66
2021/10/26 02:34:53;;;;;;;22.10;13.35;;;;;;;-0.07;64.00;100926.84;1700025;82;20992;-65
2021/10/26 02:37:19;;;;;;;27.15;13.53;;;;;;;-0.11;64.17;100923.68;1723895;82;21015;-65
2021/10/26 02:39:46;;;;;;;26.77;13.60;;;;;;;-0.13;64.34;100919.52;1735268;82;21070;-65
2021/10/26 02:42:12;;;;;;;25.27;13.32;;;;;;;-0.16;64.47;100913.18;1735305;82;20996;-65
2021/10/26 02:44:38;;;;;;;26.33;13.30;;;;;;;-0.18;64.70;100917.89;1713092;82;21574;-65
2021/10/26 02:47:05;;;;;;;;;;;;;;;-0.19;64.71;100914.87;1714228;82;20991;-64
2021/10/26 02:49:32;;;;;;;24.72;13.25;;;;;;;-0.20;64.79;100906.50;1730737;82;20106;-65
2021/10/26 02:51:59;;;;;;;23.30;13.05;;;;;;;-0.27;64.97;100901.52;1728729;82;21062;-64
2021/10/26 02:54:25;;;;;;;28.47;14.50;;;;;;;-0.27;65.05;100903.69;1723937;82;21003;-65
2021/10/26 02:56:52;;;;;;;25.68;13.68;;;;;;;-0.28;65.19;100898.50;1723794;82;21331;-65
2021/10/26 02:59:19;;;;;;;26.12;14.07;;;;;;;-0.29;65.30;100911.57;1727843;81;21630;-64
2021/10/26 03:01:46;;;;;;;24.67;13.58;;;;;;;-0.32;65.39;100908.72;1728385;81;21442;-65
2021/10/26 03:04:13;;;;;;;30.17;15.53;;;;;;;-0.33;65.49;100907.56;1728604;82;21094;-65
2021/10/26 03:06:39;;;;;;;29.82;15.20;;;;;;;-0.34;65.60;100904.55;1729475;82;21004;-65
2021/10/26 03:09:07;;;;;;;28.77;15.83;;;;;;;-0.36;65.68;100902.56;1736538;82;21099;-65
2021/10/26 03:11:33;;;;;;;26.25;13.93;;;;;;;-0.37;65.79;100898.22;1713074;82;21035;-64
2021/10/26 03:14:01;;;;;;;24.52;13.45;;;;;;;-0.37;65.95;100898.22;1729940;81;21561;-65
2021/10/26 03:16:28;;;;;;;27.32;13.72;;;;;;;-0.36;66.00;100895.88;1720387;82;21011;-65
2021/10/26 03:18:55;;;;;;;;;;;;;;;-0.37;66.06;100890.19;1733118;82;21530;-64
2021/10/26 03:21:21;;;;;;;27.82;13.50;;;;;;;-0.35;66.14;100893.51;1736362;82;20113;-64
2021/10/26 03:23:48;;;;;;;25.27;14.25;;;;;;;-0.39;66.25;100888.20;1736221;80;21043;-65
2021/10/26 03:26:14;;;;;;;;;;;;;;;-0.39;66.28;100888.20;1736259;82;21015;-65
2021/10/26 03:28:41;;;;;;;24.20;12.47;;;;;;;-0.38;66.29;100888.02;1733993;82;20119;-65
2021/10/26 03:31:08;;;;;;;;;;;;;;;-0.42;66.33;100892.03;1729690;82;21043;-64
2021/10/26 03:33:36;;;;;;;25.97;13.20;;;;;;;-0.43;66.38;100881.03;1726149;82;20107;-65
2021/10/26 03:36:05;;;;;;;25.55;13.50;;;;;;;-0.46;66.43;100883.21;1738863;80;21836;-64
2021/10/26 03:38:35;;;;;;;27.30;13.98;;;;;;;-0.46;66.51;100884.55;1736294;82;21027;-64
2021/10/26 03:41:02;;;;;;;28.27;13.40;;;;;;;-0.47;66.56;100878.86;1746173;80;21083;-65
2021/10/26 03:43:29;;;;;;;27.48;14.63;;;;;;;-0.45;66.53;100880.84;1719064;82;21035;-65
2021/10/26 03:45:55;;;;;;;24.90;13.48;;;;;;;-0.47;66.51;100869.00;1744047;80;21027;-65
2021/10/26 03:48:22;;;;;;;22.13;12.43;;;;;;;-0.46;66.51;100875.19;1744822;82;21034;-64
2021/10/26 03:50:48;;;;;;;24.98;13.93;;;;;;;-0.46;66.52;100878.67;1733449;82;21031;-64
2021/10/26 03:53:15;;;;;;;24.05;13.75;;;;;;;-0.46;66.55;100877.86;1732823;82;21035;-68
2021/10/26 03:55:44;;;;;;;26.85;13.50;;;;;;;-0.45;66.57;100882.19;1741961;80;21087;-65
2021/10/26 03:58:11;;;;;;;22.95;12.75;;;;;;;-0.44;66.51;100877.17;1736941;82;20988;-66
2021/10/26 04:00:38;;;;;;;;;;;;;;;-0.46;66.59;100876.52;1741037;80;21550;-65
2021/10/26 04:03:06;;;;;;;25.88;13.08;;;;;;;-0.46;66.62;100876.52;1718147;82;20405;-65
2021/10/26 04:08:26;;;;;;;23.85;12.47;;;;;;;-0.48;66.73;100881.20;1727594;82;20522;-65
2021/10/26 04:10:54;;;;;;;25.70;12.93;;;;;;;-0.52;66.82;100880.21;1717592;80;21055;-65
2021/10/26 04:13:23;;;;;;;24.30;12.65;;;;;;;-0.51;66.86;100883.72;1739318;81;21011;-65
2021/10/26 04:15:50;;;;;;;24.98;13.28;;;;;;;-0.51;66.84;100873.02;1744696;80;21007;-64
2021/10/26 04:18:17;;;;;;;23.85;13.18;;;;;;;-0.50;66.91;100879.52;1750894;82;21569;-64
2021/10/26 04:20:43;;;;;;;25.65;13.03;;;;;;;-0.48;66.87;100870.50;1743031;80;21016;-64
2021/10/26 04:23:10;;;;;;;28.32;14.65;;;;;;;-0.45;66.87;100872.32;1736304;82;21051;-64
2021/10/26 04:25:37;;;;;;;;;;;;;;;-0.44;66.82;100871.83;1754737;80;21644;-65
2021/10/26 04:28:04;;;;;;;28.65;12.73;;;;;;;-0.45;66.76;100862.95;1733529;82;20130;-64
2021/10/26 04:30:33;;;;;;;25.52;14.20;;;;;;;-0.48;66.89;100870.50;1731540;80;21043;-64
2021/10/26 04:33:00;;;;;;;24.15;14.28;;;;;;;-0.47;66.97;100869.50;1750989;82;21089;-64
2021/10/26 04:35:28;;;;;;;24.87;13.40;;;;;;;-0.46;66.94;100873.85;1732254;80;21126;-64
2021/10/26 04:37:54;;;;;;;25.17;14.00;;;;;;;-0.46;66.85;100869.84;1741853;82;21050;-64
2021/10/26 04:40:21;;;;;;;29.40;14.15;;;;;;;-0.46;66.88;100867.97;1723164;83;21079;-64
2021/10/26 04:42:47;;;;;;;24.77;14.38;;;;;;;-0.44;66.91;100869.15;1723795;82;21034;-64
2021/10/26 04:45:14;;;;;;;23.45;14.13;;;;;;;-0.43;66.90;100869.48;1739619;82;21706;-64
2021/10/26 04:47:43;;;;;;;24.80;14.28;;;;;;;-0.44;67.01;100871.33;1750636;82;21019;-64
2021/10/26 04:50:12;;;;;;;25.12;14.65;;;;;;;-0.42;67.03;100872.47;1752966;80;21160;-64
2021/10/26 04:52:38;;;;;;;25.55;14.03;;;;;;;-0.39;67.05;100876.16;1749063;82;21554;-64
2021/10/26 04:55:05;;;;;;;23.75;13.65;;;;;;;-0.37;67.03;100875.47;1736837;82;21015;-64
2021/10/26 04:57:32;;;;;;;23.38;14.13;;;;;;;-0.36;67.00;100879.83;1752521;82;21442;-64
2021/10/26 05:00:17;;;;;;;24.23;13.50;;;;;;;-0.33;67.05;100891.02;1725726;82;21050;-64
2021/10/26 05:02:44;;;;;;;27.60;13.93;;;;;;;-0.30;67.00;100884.47;1722988;83;21123;-64
2021/10/26 05:05:11;;;;;;;30.92;14.83;;;;;;;-0.27;66.94;100882.78;1723197;82;21066;-65
2021/10/26 05:07:39;;;;;;;26.45;14.50;;;;;;;-0.24;66.98;100873.06;1725250;82;21085;-64
2021/10/26 05:10:07;;;;;;;24.15;14.40;;;;;;;-0.21;66.90;100874.89;1723209;83;21596;-65
2021/10/26 05:12:35;;;;;;;26.93;14.40;;;;;;;-0.15;66.88;100874.72;1721509;83;21026;-64
2021/10/26 05:15:03;;;;;;;;;;;;;;;-0.12;66.86;100876.53;1714113;82;21047;-64
2021/10/26 05:17:48;;;;;;;25.32;13.83;;;;;;;-0.07;66.79;100880.00;1720153;82;20115;-64
2021/10/26 05:20:35;;;;;;;23.83;13.38;;;;;;;-0.08;66.85;100879.70;1730900;82;21044;-64
2021/10/26 05:23:10;;;;;;;25.52;14.93;;;;;;;-0.04;66.75;100885.03;1727348;82;21526;-64
2021/10/26 05:25:38;;;;;;;27.13;14.30;;;;;;;-0.02;66.79;100874.97;1704051;82;21028;-64
2021/10/26 05:28:09;;;;;;;27.75;14.38;;;;;;;0.02;66.76;100884.32;1708029;84;21059;-64
2021/10/26 05:30:36;;;;;;;24.82;14.20;;;;;;;0.07;66.71;100875.77;1709609;84;21076;-64
2021/10/26 05:33:02;;;;;;;27.00;14.83;;;;;;;0.11;66.71;100884.59;1689748;84;21000;-65
2021/10/26 05:35:30;;;;;;;22.77;13.40;;;;;;;0.17;66.62;100883.91;1730342;82;21012;-64
2021/10/26 05:37:57;;;;;;;47.78;22.35;;;;;;;0.24;66.52;100894.73;1738987;82;21011;-64
2021/10/26 05:40:24;;;;;;;41.98;22.67;;;;;;;0.30;66.40;100895.36;1730677;82;21016;-64
2021/10/26 05:42:50;;;;;;;43.92;24.47;;;;;;;0.38;66.26;100893.48;1709738;84;21078;-65
2021/10/26 05:45:18;;;;;;;40.08;23.05;;;;;;;0.45;66.07;100898.95;1711716;82;20988;-64
2021/10/26 05:47:45;;;;;;;42.03;25.77;;;;;;;0.56;65.96;100893.69;1709654;84;21007;-64
2021/10/26 05:50:12;;;;;;;35.35;19.20;;;;;;;0.77;65.47;100890.67;1711990;82;21023;-65
2021/10/26 05:52:39;;;;;;;26.80;15.78;;;;;;;0.77;65.47;100890.67;1749056;81;21005;-64
2021/10/26 05:55:06;;;;;;;;;;;;;;;0.89;65.34;100899.09;1714922;82;21130;-65
2021/10/26 05:57:32;;;;;;;24.92;14.43;;;;;;;1.04;65.17;100897.28;1723537;82;20186;-64
2021/10/26 05:59:59;;;;;;;25.90;14.80;;;;;;;1.14;65.00;100893.83;1739254;82;21594;-64
2021/10/26 06:02:25;;;;;;;28.07;16.45;;;;;;;1.30;64.63;100891.00;1739127;82;21066;-65
2021/10/26 06:04:52;;;;;;;30.32;18.00;;;;;;;1.47;64.31;100896.52;1723733;82;21083;-64
2021/10/26 06:07:18;;;;;;;26.02;15.88;;;;;;;1.69;63.92;100905.49;1708328;82;21031;-64
2021/10/26 06:09:46;;;;;;;23.12;14.60;;;;;;;1.93;63.33;100900.31;1709629;84;21094;-65
2021/10/26 06:12:18;;;;;;;24.23;14.78;;;;;;;2.18;62.91;100904.86;1719993;82;21019;-65
2021/10/26 06:14:42;;;;;;;24.90;14.58;;;;;;;2.43;62.39;100900.30;1720502;83;21636;-64
2021/10/26 06:17:09;;;;;;;25.15;14.95;;;;;;;2.67;61.47;100900.42;1723224;83;21042;-65
2021/10/26 06:19:36;;;;;;;22.90;14.90;;;;;;;2.90;61.06;100897.03;1723097;83;21125;-65
2021/10/26 06:22:03;;;;;;;;;;;;;;;3.16;60.45;100900.94;1725871;83;21046;-65
2021/10/26 06:24:31;;;;;;;22.58;13.18;;;;;;;3.42;59.92;100908.70;1737338;81;20138;-65
2021/10/26 06:26:58;;;;;;;22.02;13.43;;;;;;;3.56;59.10;100910.12;1753727;82;21022;-65
2021/10/26 06:29:24;;;;;;;21.48;13.60;;;;;;;3.76;58.82;100905.16;1744392;80;21019;-64
2021/10/26 06:32:10;;;;;;;20.55;13.98;;;;;;;3.99;58.08;100896.79;1738733;82;20963;-64
2021/10/26 06:34:37;;;;;;;22.30;13.80;;;;;;;4.25;57.54;100896.88;1725136;82;21604;-64
2021/10/26 06:37:03;;;;;;;20.10;13.60;;;;;;;4.51;57.39;100894.77;1723569;83;21051;-65
2021/10/26 06:39:30;;;;;;;20.62;13.20;;;;;;;4.78;56.43;100894.31;1727035;82;20995;-65
2021/10/26 06:41:58;;;;;;;19.25;12.65;;;;;;;5.01;55.95;100894.73;1751715;82;21000;-65
2021/10/26 06:44:42;;;;;;;19.25;12.68;;;;;;;5.22;55.17;100893.17;1730937;82;21094;-65
2021/10/26 06:47:27;;;;;;;18.52;12.43;;;;;;;5.43;54.80;100892.94;1753244;82;21012;-65
2021/10/26 06:50:12;;;;;;;21.27;14.68;;;;;;;5.60;53.75;100893.31;1729144;82;21359;-65
2021/10/26 06:52:57;;;;;;;18.35;12.33;;;;;;;5.75;53.85;100895.25;1724139;82;21015;-63
2021/10/26 06:55:44;;;;;;;19.45;12.10;;;;;;;6.03;53.35;100888.73;1723241;83;21106;-65
2021/10/26 06:58:27;;;;;;;20.92;13.00;;;;;;;6.26;52.45;100879.60;1641018;86;21570;-65
2021/10/26 07:01:12;;;;;;;17.00;11.08;;;;;;;6.47;52.12;100880.63;1733049;82;21035;-65
2021/10/26 07:03:44;;;;;;;16.07;11.50;;;;;;;6.63;51.63;100873.84;1753142;82;21074;-65
2021/10/26 07:06:26;;;;;;;15.90;11.12;;;;;;;6.77;51.17;100873.54;1749036;82;21007;-65
2021/10/26 07:08:58;;;;;;;18.02;11.63;;;;;;;6.99;51.27;100880.77;1728385;80;21554;-65
2021/10/26 07:11:26;;;;;;;17.23;11.08;;;;;;;7.27;51.00;100875.73;1729288;82;20959;-65
2021/10/26 07:13:54;;;;;;;15.18;11.05;;;;;;;7.63;50.50;100876.84;1726520;80;21396;-65
2021/10/26 07:16:20;;;;;;;18.92;11.63;;;;;;;7.96;50.17;100875.42;1759282;81;20955;-66
2021/10/26 07:18:48;;;;;;;21.15;11.38;;;;;;;8.26;48.84;100861.05;1761305;80;21058;-65
2021/10/26 07:21:14;;;;;;;;;;;;;;;8.53;48.97;100863.73;1761316;81;20978;-65
2021/10/26 07:23:52;;;;;;;15.25;10.30;;;;;;;8.85;48.03;100858.86;1667987;84;20149;-65
2021/10/26 07:26:21;;;;;;;18.55;11.35;;;;;;;8.96;47.19;100863.49;1751404;81;21462;-65
2021/10/26 07:28:48;;;;;;;17.92;10.75;;;;;;;9.12;46.84;100853.81;1730788;83;21529;-66
2021/10/26 07:31:18;;;;;;;19.25;10.40;;;;;;;9.35;46.52;100850.56;1731007;83;20991;-66
2021/10/26 07:33:44;;;;;;;19.50;11.53;;;;;;;9.61;46.51;100851.13;1753887;81;21592;-65
2021/10/26 07:36:11;;;;;;;;;;;;;;;9.90;45.32;100854.22;1763104;81;20999;-66
2021/10/26 07:38:40;;;;;;;;;;;;;;;10.07;45.10;100842.05;1746581;81;20126;-65
2021/10/26 07:41:08;;;;;;;29.40;9.78;;;;;;;10.16;44.80;100848.27;1760866;80;20114;-66
2021/10/26 07:43:39;;;;;;;26.57;9.58;;;;;;;10.21;44.05;100836.11;1695034;81;21062;-66
2021/10/26 07:46:24;;;;;;;30.08;9.15;;;;;;;10.31;43.29;100840.38;1760988;81;21024;-65
2021/10/26 07:48:51;;;;;;;22.62;8.90;;;;;;;10.39;42.84;100839.17;1760845;81;21003;-65
2021/10/26 07:51:18;;;;;;;;;;;;;;;10.50;42.92;100831.48;1763874;81;21486;-66
2021/10/26 07:53:48;;;;;;;25.10;9.67;;;;;;;10.70;42.49;100826.95;1730771;81;20138;-65
2021/10/26 07:56:14;;;;;;;15.53;7.78;;;;;;;10.79;42.65;100828.19;1761180;81;21023;-65
2021/10/26 07:58:41;;;;;;;;;;;;;;;11.10;42.75;100833.05;1761629;81;21038;-66
2021/10/26 08:01:08;;;;;;;;;;;;;;;11.34;40.73;100829.06;1746857;81;20136;-66
2021/10/26 08:03:55;;;;;;;17.02;7.83;;;;;;;11.24;40.28;100826.19;1751994;81;20118;-65
2021/10/26 08:06:24;;;;;;;18.65;8.43;;;;;;;11.01;40.42;100827.74;1751994;81;21498;-65
2021/10/26 08:08:50;;;;;;;15.18;7.12;;;;;;;11.05;40.67;100820.73;1748601;81;21005;-66
2021/10/26 08:11:18;;;;;;;17.07;8.23;;;;;;;11.23;40.71;100819.07;1749126;81;21488;-65
2021/10/26 08:13:46;;;;;;;19.52;8.10;;;;;;;11.42;40.15;100819.09;1731307;81;21090;-65
2021/10/26 08:16:14;;;;;;;16.73;7.75;;;;;;;11.52;40.11;100815.67;1696524;83;21023;-66
2021/10/26 08:18:43;;;;;;;17.35;8.10;;;;;;;11.70;39.70;100817.28;1736657;82;21012;-65
2021/10/26 08:21:13;;;;;;;17.50;7.25;;;;;;;11.88;39.36;100817.00;1736483;82;21573;-64
2021/10/26 08:23:41;;;;;;;20.50;7.00;;;;;;;12.04;39.60;100812.56;1738529;82;21023;-65
2021/10/26 08:28:59;;;;;;;12.18;6.03;;;;;;;12.79;38.20;100800.19;1815925;79;22584;-63
2021/10/26 08:31:27;;;;;;;11.20;6.08;;;;;;;12.89;37.75;100811.23;1748915;82;20992;-63
2021/10/26 08:36:38;;;;;;;14.83;5.40;;;;;;;13.09;36.69;100807.31;1746147;82;20999;-65
2021/10/26 08:39:06;;;;;;;12.95;5.12;;;;;;;12.97;36.85;100815.66;1727462;82;21497;-64
2021/10/26 08:41:35;;;;;;;10.35;4.65;;;;;;;13.02;36.46;100795.75;1722747;82;20975;-65
2021/10/26 08:44:02;;;;;;;11.88;5.55;;;;;;;13.04;36.24;100806.44;1752180;82;21018;-65
2021/10/26 08:46:29;;;;;;;10.55;4.60;;;;;;;13.02;35.96;100804.48;1722327;82;21534;-65
2021/10/26 08:48:57;;;;;;;10.60;4.85;;;;;;;12.99;35.99;100804.47;1752334;81;20987;-66
2021/10/26 08:51:44;;;;;;;11.65;4.45;;;;;;;13.12;36.19;100805.41;1747480;82;20979;-65
2021/10/26 08:54:13;;;;;;;11.35;4.72;;;;;;;13.30;35.72;100803.63;1727560;82;21043;-64
2021/10/26 08:56:59;;;;;;;13.80;5.00;;;;;;;13.32;35.33;100798.70;1649089;86;21063;-65
2021/10/26 08:59:45;;;;;;;13.13;5.05;;;;;;;13.34;35.74;100803.38;1650535;86;21669;-67
2021/10/26 09:02:11;;;;;;;12.98;4.72;;;;;;;13.65;36.04;100800.27;1694481;82;21035;-66
2021/10/26 09:04:38;;;;;;;11.55;4.47;;;;;;;14.07;35.09;100802.06;1752265;82;21015;-65
2021/10/26 09:07:23;;;;;;;12.00;4.75;;;;;;;14.20;34.23;100791.45;1750350;82;21055;-66
2021/10/26 09:09:47;;;;;;;10.10;4.65;;;;;;;14.24;34.35;100792.53;1729167;82;21153;-65
2021/10/26 09:18:26;;;;;;;11.80;4.40;;;;;;;14.59;33.53;100784.14;1721465;83;21131;-67
2021/10/26 09:20:53;;;;;;;9.28;5.05;;;;;;;14.51;33.13;100779.20;1744837;82;21035;-65
2021/10/26 09:23:26;;;;;;;9.53;4.87;;;;;;;14.22;33.32;100786.52;1751536;82;21047;-66
2021/10/26 09:25:54;;;;;;;10.98;4.87;;;;;;;14.12;33.80;100786.49;1751579;82;21074;-66
2021/10/26 09:28:20;;;;;;;10.20;4.50;;;;;;;14.38;34.05;100778.62;1749816;81;21648;-65
2021/10/26 09:31:07;;;;;;;15.18;9.10;;;;;;;14.84;33.08;100779.47;1722832;82;21155;-65
2021/10/26 09:33:38;;;;;;;;;;;;;;;15.08;32.54;100783.04;1725618;83;21071;-66
2021/10/26 09:36:28;;;;;;;10.28;5.58;;;;;;;15.25;32.17;100781.64;1722983;83;20113;-66
2021/10/26 09:39:06;;;;;;;10.90;5.00;;;;;;;15.11;32.40;100776.99;1683471;85;21071;-66
2021/10/26 09:42:00;;;;;;;11.10;5.00;;;;;;;14.89;31.98;100767.69;1701275;83;21015;-65
2021/10/26 09:44:28;;;;;;;11.50;4.67;;;;;;;14.33;32.24;100761.34;1727239;82;21565;-65
2021/10/26 09:47:19;;;;;;;25.15;5.83;;;;;;;13.63;33.31;100758.68;1752482;82;21081;-65
2021/10/26 09:49:52;;;;;;;6.83;4.28;;;;;;;13.10;34.16;100758.94;1752595;82;21113;-65
2021/10/26 09:52:26;;;;;;;6.58;4.80;;;;;;;12.50;35.35;100749.70;1752412;82;21086;-65
2021/10/26 09:55:14;;;;;;;6.90;3.58;;;;;;;12.19;36.31;100748.03;1752512;82;21039;-65
2021/10/26 09:57:56;;;;;;;8.00;4.83;;;;;;;12.05;36.61;100741.33;1752251;82;21038;-65
2021/10/26 10:00:38;;;;;;;8.45;4.55;;;;;;;11.95;37.55;100728.41;1724290;82;21537;-64
2021/10/26 10:03:15;;;;;;;7.58;5.05;;;;;;;11.89;37.59;100736.27;1746672;82;21572;-66
2021/10/26 10:05:57;;;;;;;8.73;5.10;;;;;;;11.78;38.04;100741.86;1752243;82;21126;-66
2021/10/26 10:08:36;;;;;;;7.72;4.53;;;;;;;11.70;38.35;100728.63;1730816;82;21062;-66
2021/10/26 10:11:11;;;;;;;7.50;4.53;;;;;;;11.62;38.49;100718.99;1740850;82;21043;-66
2021/10/26 10:13:42;;;;;;;8.53;4.20;;;;;;;11.56;38.62;100724.64;1722533;83;21050;-66
2021/10/26 10:16:15;;;;;;;6.47;4.42;;;;;;;11.58;37.75;100729.32;1735627;82;21054;-65
2021/10/26 10:18:43;;;;;;;8.15;4.20;;;;;;;11.55;37.40;100719.73;1724762;82;21027;-65
2021/10/26 10:21:13;;;;;;;8.63;4.60;;;;;;;11.56;37.57;100700.93;1722546;83;21086;-65
2021/10/26 10:23:42;;;;;;;7.80;4.20;;;;;;;11.56;37.76;100713.73;1685454;85;21063;-66
2021/10/26 10:26:13;;;;;;;7.00;4.00;;;;;;;11.59;38.12;100700.41;1728804;82;21035;-66
2021/10/26 10:28:45;;;;;;;6.55;4.53;;;;;;;11.68;37.58;100687.16;1742246;81;21028;-65
2021/10/26 10:31:14;;;;;;;7.30;4.28;;;;;;;11.73;37.05;100695.41;1738154;82;21036;-66
2021/10/26 10:33:44;;;;;;;6.37;3.92;;;;;;;11.72;37.39;100695.16;1738323;82;21562;-66
2021/10/26 10:36:12;;;;;;;7.40;4.60;;;;;;;11.78;37.46;100686.77;1737109;82;21015;-66
2021/10/26 10:38:38;;;;;;;6.03;4.40;;;;;;;11.87;37.11;100680.29;1724967;82;21018;-66
2021/10/26 10:41:32;;;;;;;6.45;4.10;;;;;;;11.94;37.00;100678.17;1710962;82;21578;-65
2021/10/26 10:44:08;;;;;;;8.43;4.80;;;;;;;12.06;37.43;100674.77;1707744;84;21350;-65
2021/10/26 10:46:43;;;;;;;10.13;4.28;;;;;;;12.30;36.86;100663.78;1730320;82;21009;-66
2021/10/26 10:49:30;;;;;;;7.70;4.05;;;;;;;12.53;36.07;100662.60;1737888;82;21118;-64
2021/10/26 10:52:16;;;;;;;7.45;4.90;;;;;;;12.73;35.87;100667.37;1725051;82;21012;-65
2021/10/26 10:57:36;;;;;;;8.50;4.70;;;;;;;13.09;35.54;100665.16;1726405;82;20976;-64
2021/10/26 11:00:28;;;;;;;7.10;4.65;;;;;;;13.30;34.81;100655.97;1734681;82;21055;-64
2021/10/26 11:02:57;;;;;;;10.40;5.00;;;;;;;13.58;34.65;100647.84;1737232;82;21066;-64
2021/10/26 11:05:38;;;;;;;8.20;4.67;;;;;;;14.01;34.24;100644.37;1737021;82;21868;-64
2021/10/26 11:08:13;;;;;;;8.65;4.97;;;;;;;14.28;33.15;100641.64;1726303;82;20984;-64
2021/10/26 11:10:57;;;;;;;7.22;4.47;;;;;;;14.39;33.23;100641.94;1733254;82;20992;-64
2021/10/26 11:13:31;;;;;;;9.73;4.85;;;;;;;14.73;32.88;100639.99;1736912;82;21039;-65
2021/10/26 11:16:03;;;;;;;7.95;5.35;;;;;;;14.93;31.82;100640.77;1731689;82;21035;-65
2021/10/26 11:18:49;;;;;;;7.50;4.92;;;;;;;14.92;31.82;100632.80;1709635;84;21039;-65
2021/10/26 11:21:27;;;;;;;7.03;4.42;;;;;;;15.10;31.19;100633.56;1709676;84;21046;-65
2021/10/26 11:24:04;;;;;;;7.87;4.72;;;;;;;15.17;30.79;100626.41;1728359;82;21027;-65
2021/10/26 11:26:44;;;;;;;8.15;4.45;;;;;;;15.26;30.46;100631.05;1739206;82;21016;-64
2021/10/26 11:29:17;;;;;;;7.70;4.75;;;;;;;15.59;30.90;100629.52;1723531;82;21089;-63
2021/10/26 11:31:50;;;;;;;7.25;4.25;;;;;;;15.90;29.81;100617.27;1737623;82;21003;-65
2021/10/26 11:34:25;;;;;;;5.55;3.67;;;;;;;16.09;29.15;100605.02;1746520;81;21058;-64
2021/10/26 11:37:04;;;;;;;6.40;4.20;;;;;;;16.11;29.33;100604.20;1751797;82;21450;-64
2021/10/26 11:39:33;;;;;;;6.30;4.45;;;;;;;16.50;28.65;100612.36;1752945;82;21015;-64
2021/10/26 11:41:59;;;;;;;7.97;3.70;;;;;;;16.54;28.46;100603.80;1743961;82;21454;-64
2021/10/26 11:44:28;;;;;;;7.67;3.83;;;;;;;16.12;28.53;100599.53;1723159;83;21455;-65
2021/10/26 11:46:54;;;;;;;4.72;3.80;;;;;;;15.10;29.61;100603.40;1696977;83;21030;-64
2021/10/26 11:49:24;;;;;;;;;;;;;;;14.16;30.92;100603.31;1725845;83;21035;-64
2021/10/26 11:52:00;;;;;;;6.05;4.00;;;;;;;13.46;31.82;100602.95;1744382;82;20116;-64
2021/10/26 11:54:39;;;;;;;8.43;4.22;;;;;;;12.68;33.05;100611.36;1723379;83;21098;-64
2021/10/26 11:57:11;;;;;;;7.67;3.72;;;;;;;12.08;33.90;100599.47;1742030;82;20944;-64